sensor_id;sensor_type;location;lat;lon;timestamp;pressure;altitude;pressure_sealevel;temperature;humidity
42411;BME280;28056;51.112;0.984;2024-03-02T00:00:38;98378.15;;;7.65;96.68
42411;BME280;28056;51.112;0.984;2024-03-02T00:03:07;98385.00;;;7.78;96.40
42411;BME280;28056;51.112;0.984;2024-03-02T00:05:35;98383.09;;;7.22;99.88
42411;BME280;28056;51.112;0.984;2024-03-02T00:08:05;98381.58;;;7.07;100.00
42411;BME280;28056;51.112;0.984;2024-03-02T00:10:37;98378.27;;;7.03;100.00
42411;BME280;28056;51.112;0.984;2024-03-02T00:13:06;98378.95;;;7.10;100.00
42411;BME280;28056;51.112;0.984;2024-03-02T00:15:41;98380.13;;;7.02;100.00
42411;BME280;28056;51.112;0.984;2024-03-02T00:18:11;98373.03;;;6.28;100.00
42411;BME280;28056;51.112;0.984;2024-03-02T00:20:38;98366.46;;;6.03;100.00
42411;BME280;28056;51.112;0.984;2024-03-02T00:23:08;98377.42;;;5.89;100.00
42411;BME280;28056;51.112;0.984;2024-03-02T00:25:38;98394.30;;;5.92;100.00
42411;BME280;28056;51.112;0.984;2024-03-02T00:28:06;98389.38;;;5.94;100.00
42411;BME280;28056;51.112;0.984;2024-03-02T00:30:52;98394.57;;;6.61;100.00
42411;BME280;28056;51.112;0.984;2024-03-02T00:33:22;98392.51;;;6.98;100.00
42411;BME280;28056;51.112;0.984;2024-03-02T00:35:50;98386.33;;;7.09;100.00
42411;BME280;28056;51.112;0.984;2024-03-02T00:38:17;98391.21;;;7.55;100.00
42411;BME280;28056;51.112;0.984;2024-03-02T00:40:46;98394.60;;;7.75;100.00
42411;BME280;28056;51.112;0.984;2024-03-02T00:43:39;98393.64;;;7.79;100.00
42411;BME280;28056;51.112;0.984;2024-03-02T00:46:08;98393.18;;;7.17;100.00
42411;BME280;28056;51.112;0.984;2024-03-02T00:48:36;98387.26;;;7.05;100.00
42411;BME280;28056;51.112;0.984;2024-03-02T00:51:03;98386.26;;;6.95;100.00
42411;BME280;28056;51.112;0.984;2024-03-02T00:53:32;98386.31;;;6.87;100.00
42411;BME280;28056;51.112;0.984;2024-03-02T00:56:01;98388.66;;;5.98;100.00
42411;BME280;28056;51.112;0.984;2024-03-02T00:58:28;98384.02;;;6.72;100.00
42411;BME280;28056;51.112;0.984;2024-03-02T01:00:55;98390.30;;;5.86;100.00
42411;BME280;28056;51.112;0.984;2024-03-02T01:04:53;98390.06;;;6.31;100.00
42411;BME280;28056;51.112;0.984;2024-03-02T01:07:20;98395.11;;;6.54;100.00
42411;BME280;28056;51.112;0.984;2024-03-02T01:09:47;98392.65;;;6.08;100.00
42411;BME280;28056;51.112;0.984;2024-03-02T01:12:14;98390.96;;;5.88;100.00
42411;BME280;28056;51.112;0.984;2024-03-02T01:14:42;98391.58;;;6.84;100.00
42411;BME280;28056;51.112;0.984;2024-03-02T01:17:09;98385.62;;;6.70;100.00
42411;BME280;28056;51.112;0.984;2024-03-02T01:19:36;98381.40;;;6.14;100.00
42411;BME280;28056;51.112;0.984;2024-03-02T01:22:04;98387.14;;;6.53;100.00
42411;BME280;28056;51.112;0.984;2024-03-02T01:24:32;98383.53;;;6.01;100.00
42411;BME280;28056;51.112;0.984;2024-03-02T01:26:59;98378.87;;;5.93;100.00
42411;BME280;28056;51.112;0.984;2024-03-02T01:29:26;98379.25;;;6.01;100.00
42411;BME280;28056;51.112;0.984;2024-03-02T01:31:53;98375.94;;;6.26;100.00
42411;BME280;28056;51.112;0.984;2024-03-02T01:34:20;98378.53;;;6.61;100.00
42411;BME280;28056;51.112;0.984;2024-03-02T01:36:47;98376.51;;;6.32;100.00
42411;BME280;28056;51.112;0.984;2024-03-02T01:39:14;98374.39;;;5.95;100.00
42411;BME280;28056;51.112;0.984;2024-03-02T01:41:41;98377.52;;;6.11;100.00
42411;BME280;28056;51.112;0.984;2024-03-02T01:44:08;98374.34;;;5.95;100.00
42411;BME280;28056;51.112;0.984;2024-03-02T01:46:35;98377.43;;;5.73;100.00
42411;BME280;28056;51.112;0.984;2024-03-02T01:49:02;98376.58;;;5.54;100.00
42411;BME280;28056;51.112;0.984;2024-03-02T01:51:29;98373.82;;;5.85;100.00
42411;BME280;28056;51.112;0.984;2024-03-02T01:53:57;98371.88;;;5.53;100.00
42411;BME280;28056;51.112;0.984;2024-03-02T01:56:24;98374.81;;;5.21;100.00
42411;BME280;28056;51.112;0.984;2024-03-02T01:58:51;98376.82;;;5.62;100.00
42411;BME280;28056;51.112;0.984;2024-03-02T02:01:18;98375.95;;;5.33;100.00
42411;BME280;28056;51.112;0.984;2024-03-02T02:03:45;98366.48;;;5.31;100.00
42411;BME280;28056;51.112;0.984;2024-03-02T02:06:12;98358.93;;;5.43;100.00
42411;BME280;28056;51.112;0.984;2024-03-02T02:08:40;98361.63;;;5.51;100.00
42411;BME280;28056;51.112;0.984;2024-03-02T02:11:07;98365.33;;;5.05;100.00
42411;BME280;28056;51.112;0.984;2024-03-02T02:13:35;98363.46;;;4.85;100.00
42411;BME280;28056;51.112;0.984;2024-03-02T02:16:06;98366.17;;;5.16;100.00
42411;BME280;28056;51.112;0.984;2024-03-02T02:18:34;98360.41;;;4.66;100.00
42411;BME280;28056;51.112;0.984;2024-03-02T02:21:02;98363.96;;;5.18;100.00
42411;BME280;28056;51.112;0.984;2024-03-02T02:23:30;98358.93;;;5.16;100.00
42411;BME280;28056;51.112;0.984;2024-03-02T02:25:57;98352.66;;;5.63;100.00
42411;BME280;28056;51.112;0.984;2024-03-02T02:28:25;98357.56;;;5.22;100.00
42411;BME280;28056;51.112;0.984;2024-03-02T02:30:55;98358.49;;;5.64;100.00
42411;BME280;28056;51.112;0.984;2024-03-02T02:33:22;98352.97;;;5.42;100.00
42411;BME280;28056;51.112;0.984;2024-03-02T02:35:50;98358.18;;;5.33;100.00
42411;BME280;28056;51.112;0.984;2024-03-02T02:38:18;98361.09;;;5.41;100.00
42411;BME280;28056;51.112;0.984;2024-03-02T02:40:45;98355.02;;;5.30;100.00
42411;BME280;28056;51.112;0.984;2024-03-02T02:43:12;98354.66;;;5.20;100.00
42411;BME280;28056;51.112;0.984;2024-03-02T02:45:39;98349.63;;;5.88;100.00
42411;BME280;28056;51.112;0.984;2024-03-02T02:48:06;98345.95;;;5.35;100.00
42411;BME280;28056;51.112;0.984;2024-03-02T02:50:34;98343.71;;;5.60;100.00
42411;BME280;28056;51.112;0.984;2024-03-02T02:53:01;98345.02;;;5.57;100.00
42411;BME280;28056;51.112;0.984;2024-03-02T02:55:28;98349.36;;;5.58;100.00
42411;BME280;28056;51.112;0.984;2024-03-02T02:57:55;98347.28;;;5.97;100.00
42411;BME280;28056;51.112;0.984;2024-03-02T03:00:23;98346.41;;;5.55;100.00
42411;BME280;28056;51.112;0.984;2024-03-02T03:02:50;98345.73;;;5.06;100.00
42411;BME280;28056;51.112;0.984;2024-03-02T03:05:18;98340.17;;;5.71;100.00
42411;BME280;28056;51.112;0.984;2024-03-02T03:07:45;98343.12;;;5.36;100.00
42411;BME280;28056;51.112;0.984;2024-03-02T03:10:12;98347.31;;;5.46;100.00
42411;BME280;28056;51.112;0.984;2024-03-02T03:12:40;98350.03;;;5.25;100.00
42411;BME280;28056;51.112;0.984;2024-03-02T03:15:08;98350.78;;;4.96;100.00
42411;BME280;28056;51.112;0.984;2024-03-02T03:17:36;98346.40;;;5.26;100.00
42411;BME280;28056;51.112;0.984;2024-03-02T03:20:04;98345.83;;;5.30;100.00
42411;BME280;28056;51.112;0.984;2024-03-02T03:22:32;98339.06;;;5.36;100.00
42411;BME280;28056;51.112;0.984;2024-03-02T03:24:59;98343.01;;;5.18;100.00
42411;BME280;28056;51.112;0.984;2024-03-02T03:27:26;98343.65;;;5.40;100.00
42411;BME280;28056;51.112;0.984;2024-03-02T03:29:54;98328.42;;;5.63;100.00
42411;BME280;28056;51.112;0.984;2024-03-02T03:32:21;98323.67;;;5.56;100.00
42411;BME280;28056;51.112;0.984;2024-03-02T03:34:48;98317.87;;;5.93;100.00
42411;BME280;28056;51.112;0.984;2024-03-02T03:37:16;98319.17;;;5.91;100.00
42411;BME280;28056;51.112;0.984;2024-03-02T03:39:43;98318.29;;;5.79;100.00
42411;BME280;28056;51.112;0.984;2024-03-02T03:42:10;98319.06;;;5.64;100.00
42411;BME280;28056;51.112;0.984;2024-03-02T03:44:37;98320.32;;;5.76;100.00
42411;BME280;28056;51.112;0.984;2024-03-02T03:47:04;98318.66;;;6.13;100.00
42411;BME280;28056;51.112;0.984;2024-03-02T03:49:32;98325.24;;;5.95;100.00
42411;BME280;28056;51.112;0.984;2024-03-02T03:51:59;98326.02;;;5.87;100.00
42411;BME280;28056;51.112;0.984;2024-03-02T03:54:26;98329.32;;;5.74;100.00
42411;BME280;28056;51.112;0.984;2024-03-02T03:56:53;98325.20;;;5.33;100.00
42411;BME280;28056;51.112;0.984;2024-03-02T03:59:20;98331.17;;;5.96;100.00
42411;BME280;28056;51.112;0.984;2024-03-02T04:01:47;98324.61;;;5.57;100.00
42411;BME280;28056;51.112;0.984;2024-03-02T04:04:15;98322.17;;;5.73;100.00
42411;BME280;28056;51.112;0.984;2024-03-02T04:06:43;98324.35;;;5.88;100.00
42411;BME280;28056;51.112;0.984;2024-03-02T04:09:10;98328.11;;;5.70;100.00
42411;BME280;28056;51.112;0.984;2024-03-02T04:11:37;98330.44;;;5.99;100.00
42411;BME280;28056;51.112;0.984;2024-03-02T04:14:04;98326.47;;;5.45;100.00
42411;BME280;28056;51.112;0.984;2024-03-02T04:16:31;98324.69;;;5.39;100.00
42411;BME280;28056;51.112;0.984;2024-03-02T04:18:58;98314.12;;;5.08;100.00
42411;BME280;28056;51.112;0.984;2024-03-02T04:21:25;98314.86;;;5.30;100.00
42411;BME280;28056;51.112;0.984;2024-03-02T04:23:52;98309.69;;;5.30;100.00
42411;BME280;28056;51.112;0.984;2024-03-02T04:26:19;98308.63;;;5.31;100.00
42411;BME280;28056;51.112;0.984;2024-03-02T04:28:46;98308.46;;;4.99;100.00
42411;BME280;28056;51.112;0.984;2024-03-02T04:31:15;98305.03;;;5.10;100.00
42411;BME280;28056;51.112;0.984;2024-03-02T04:33:42;98309.54;;;5.19;100.00
42411;BME280;28056;51.112;0.984;2024-03-02T04:36:09;98302.69;;;5.20;100.00
42411;BME280;28056;51.112;0.984;2024-03-02T04:38:36;98313.06;;;5.16;100.00
42411;BME280;28056;51.112;0.984;2024-03-02T04:41:04;98300.53;;;5.43;100.00
42411;BME280;28056;51.112;0.984;2024-03-02T04:43:32;98305.09;;;5.55;100.00
42411;BME280;28056;51.112;0.984;2024-03-02T04:45:59;98304.57;;;5.11;100.00
42411;BME280;28056;51.112;0.984;2024-03-02T04:48:27;98307.29;;;5.49;100.00
42411;BME280;28056;51.112;0.984;2024-03-02T04:50:54;98302.44;;;6.09;100.00
42411;BME280;28056;51.112;0.984;2024-03-02T04:53:21;98303.19;;;6.45;100.00
42411;BME280;28056;51.112;0.984;2024-03-02T04:55:48;98299.84;;;5.98;100.00
42411;BME280;28056;51.112;0.984;2024-03-02T04:58:15;98286.12;;;5.58;100.00
42411;BME280;28056;51.112;0.984;2024-03-02T05:00:43;98280.52;;;5.34;100.00
42411;BME280;28056;51.112;0.984;2024-03-02T05:03:10;98292.25;;;5.59;100.00
42411;BME280;28056;51.112;0.984;2024-03-02T05:05:37;98288.91;;;5.80;100.00
42411;BME280;28056;51.112;0.984;2024-03-02T05:08:05;98282.48;;;6.04;100.00
42411;BME280;28056;51.112;0.984;2024-03-02T05:10:32;98290.81;;;5.96;100.00
42411;BME280;28056;51.112;0.984;2024-03-02T05:12:59;98290.54;;;6.13;100.00
42411;BME280;28056;51.112;0.984;2024-03-02T05:15:26;98289.90;;;5.31;100.00
42411;BME280;28056;51.112;0.984;2024-03-02T05:17:54;98284.55;;;5.81;100.00
42411;BME280;28056;51.112;0.984;2024-03-02T05:20:21;98284.99;;;5.47;100.00
42411;BME280;28056;51.112;0.984;2024-03-02T05:22:48;98285.03;;;5.39;100.00
42411;BME280;28056;51.112;0.984;2024-03-02T05:25:15;98285.56;;;5.91;100.00
42411;BME280;28056;51.112;0.984;2024-03-02T05:27:43;98282.81;;;5.69;100.00
42411;BME280;28056;51.112;0.984;2024-03-02T05:30:11;98282.89;;;5.50;100.00
42411;BME280;28056;51.112;0.984;2024-03-02T05:32:37;98286.39;;;4.82;100.00
42411;BME280;28056;51.112;0.984;2024-03-02T05:35:06;98285.59;;;4.75;100.00
42411;BME280;28056;51.112;0.984;2024-03-02T05:37:33;98279.97;;;5.42;100.00
42411;BME280;28056;51.112;0.984;2024-03-02T05:40:01;98277.84;;;5.22;100.00
42411;BME280;28056;51.112;0.984;2024-03-02T05:42:28;98266.43;;;5.35;100.00
42411;BME280;28056;51.112;0.984;2024-03-02T05:44:55;98270.90;;;5.04;100.00
42411;BME280;28056;51.112;0.984;2024-03-02T05:47:23;98277.52;;;4.98;100.00
42411;BME280;28056;51.112;0.984;2024-03-02T05:49:50;98275.30;;;5.16;100.00
42411;BME280;28056;51.112;0.984;2024-03-02T05:52:17;98274.25;;;5.87;100.00
42411;BME280;28056;51.112;0.984;2024-03-02T05:54:44;98271.43;;;5.34;100.00
42411;BME280;28056;51.112;0.984;2024-03-02T05:57:11;98270.48;;;4.95;100.00
42411;BME280;28056;51.112;0.984;2024-03-02T05:59:38;98281.11;;;5.44;100.00
42411;BME280;28056;51.112;0.984;2024-03-02T06:02:05;98272.41;;;4.72;100.00
42411;BME280;28056;51.112;0.984;2024-03-02T06:04:32;98279.09;;;6.09;100.00
42411;BME280;28056;51.112;0.984;2024-03-02T06:06:59;98277.29;;;5.48;100.00
42411;BME280;28056;51.112;0.984;2024-03-02T06:09:26;98273.81;;;5.41;100.00
42411;BME280;28056;51.112;0.984;2024-03-02T06:11:53;98274.48;;;5.39;100.00
42411;BME280;28056;51.112;0.984;2024-03-02T06:14:20;98274.00;;;5.29;100.00
42411;BME280;28056;51.112;0.984;2024-03-02T06:16:47;98270.06;;;5.61;100.00
42411;BME280;28056;51.112;0.984;2024-03-02T06:19:14;98280.44;;;5.81;100.00
42411;BME280;28056;51.112;0.984;2024-03-02T06:21:41;98271.12;;;5.72;100.00
42411;BME280;28056;51.112;0.984;2024-03-02T06:24:08;98267.85;;;5.13;100.00
42411;BME280;28056;51.112;0.984;2024-03-02T06:26:35;98268.44;;;5.63;100.00
42411;BME280;28056;51.112;0.984;2024-03-02T06:29:02;98267.49;;;5.53;100.00
42411;BME280;28056;51.112;0.984;2024-03-02T06:31:29;98271.81;;;5.94;100.00
42411;BME280;28056;51.112;0.984;2024-03-02T06:33:56;98281.71;;;5.41;100.00
42411;BME280;28056;51.112;0.984;2024-03-02T06:36:23;98275.38;;;5.10;100.00
42411;BME280;28056;51.112;0.984;2024-03-02T06:38:50;98269.41;;;5.60;100.00
42411;BME280;28056;51.112;0.984;2024-03-02T06:41:17;98275.52;;;4.28;100.00
42411;BME280;28056;51.112;0.984;2024-03-02T06:43:44;98279.24;;;4.71;100.00
42411;BME280;28056;51.112;0.984;2024-03-02T06:46:12;98289.51;;;4.30;100.00
42411;BME280;28056;51.112;0.984;2024-03-02T06:48:38;98281.13;;;4.11;100.00
42411;BME280;28056;51.112;0.984;2024-03-02T06:51:06;98285.82;;;4.21;100.00
42411;BME280;28056;51.112;0.984;2024-03-02T06:53:34;98278.97;;;4.03;100.00
42411;BME280;28056;51.112;0.984;2024-03-02T06:56:02;98276.57;;;3.66;100.00
42411;BME280;28056;51.112;0.984;2024-03-02T06:58:30;98276.14;;;4.31;100.00
42411;BME280;28056;51.112;0.984;2024-03-02T07:00:56;98283.28;;;4.51;100.00
42411;BME280;28056;51.112;0.984;2024-03-02T07:03:24;98281.77;;;4.02;100.00
42411;BME280;28056;51.112;0.984;2024-03-02T07:05:51;98280.40;;;4.49;100.00
42411;BME280;28056;51.112;0.984;2024-03-02T07:08:18;98290.06;;;4.52;100.00
42411;BME280;28056;51.112;0.984;2024-03-02T07:10:45;98282.47;;;4.29;100.00
42411;BME280;28056;51.112;0.984;2024-03-02T07:13:12;98279.72;;;4.13;100.00
42411;BME280;28056;51.112;0.984;2024-03-02T07:15:39;98286.69;;;4.47;100.00
42411;BME280;28056;51.112;0.984;2024-03-02T07:18:06;98281.63;;;3.68;100.00
42411;BME280;28056;51.112;0.984;2024-03-02T07:20:33;98285.73;;;3.93;100.00
42411;BME280;28056;51.112;0.984;2024-03-02T07:23:00;98278.53;;;3.67;100.00
42411;BME280;28056;51.112;0.984;2024-03-02T07:25:27;98291.50;;;4.25;100.00
42411;BME280;28056;51.112;0.984;2024-03-02T07:27:54;98283.71;;;4.35;100.00
42411;BME280;28056;51.112;0.984;2024-03-02T07:30:21;98292.85;;;4.09;100.00
42411;BME280;28056;51.112;0.984;2024-03-02T07:32:50;98294.96;;;4.08;100.00
42411;BME280;28056;51.112;0.984;2024-03-02T07:35:18;98284.61;;;4.03;100.00
42411;BME280;28056;51.112;0.984;2024-03-02T07:37:45;98292.67;;;4.11;100.00
42411;BME280;28056;51.112;0.984;2024-03-02T07:40:12;98292.19;;;4.30;100.00
42411;BME280;28056;51.112;0.984;2024-03-02T07:42:40;98295.60;;;4.16;100.00
42411;BME280;28056;51.112;0.984;2024-03-02T07:45:08;98298.76;;;4.26;100.00
42411;BME280;28056;51.112;0.984;2024-03-02T07:47:36;98291.32;;;4.28;100.00
42411;BME280;28056;51.112;0.984;2024-03-02T07:50:04;98288.14;;;4.10;100.00
42411;BME280;28056;51.112;0.984;2024-03-02T07:52:32;98297.61;;;4.49;100.00
42411;BME280;28056;51.112;0.984;2024-03-02T07:55:00;98299.33;;;4.63;100.00
42411;BME280;28056;51.112;0.984;2024-03-02T07:57:27;98286.17;;;4.11;100.00
42411;BME280;28056;51.112;0.984;2024-03-02T07:59:54;98297.39;;;4.18;100.00
42411;BME280;28056;51.112;0.984;2024-03-02T08:02:21;98295.55;;;4.37;100.00
42411;BME280;28056;51.112;0.984;2024-03-02T08:04:48;98295.26;;;4.20;100.00
42411;BME280;28056;51.112;0.984;2024-03-02T08:07:15;98301.74;;;4.06;100.00
42411;BME280;28056;51.112;0.984;2024-03-02T08:09:43;98302.94;;;4.05;100.00
42411;BME280;28056;51.112;0.984;2024-03-02T08:12:10;98303.81;;;4.25;100.00
42411;BME280;28056;51.112;0.984;2024-03-02T08:14:37;98300.34;;;4.47;100.00
42411;BME280;28056;51.112;0.984;2024-03-02T08:17:04;98312.26;;;4.28;100.00
42411;BME280;28056;51.112;0.984;2024-03-02T08:19:31;98303.43;;;4.00;100.00
42411;BME280;28056;51.112;0.984;2024-03-02T08:21:58;98306.23;;;4.52;100.00
42411;BME280;28056;51.112;0.984;2024-03-02T08:24:26;98305.43;;;4.28;100.00
42411;BME280;28056;51.112;0.984;2024-03-02T08:26:53;98318.14;;;4.71;100.00
42411;BME280;28056;51.112;0.984;2024-03-02T08:29:20;98317.23;;;4.64;100.00
42411;BME280;28056;51.112;0.984;2024-03-02T08:31:47;98310.93;;;4.14;100.00
42411;BME280;28056;51.112;0.984;2024-03-02T08:34:14;98324.34;;;4.64;100.00
42411;BME280;28056;51.112;0.984;2024-03-02T08:36:41;98323.13;;;4.00;100.00
42411;BME280;28056;51.112;0.984;2024-03-02T08:39:09;98321.18;;;4.36;100.00
42411;BME280;28056;51.112;0.984;2024-03-02T08:41:36;98320.88;;;4.01;100.00
42411;BME280;28056;51.112;0.984;2024-03-02T08:44:03;98323.36;;;4.42;100.00
42411;BME280;28056;51.112;0.984;2024-03-02T08:46:31;98326.41;;;4.59;100.00
42411;BME280;28056;51.112;0.984;2024-03-02T08:48:58;98326.90;;;4.58;100.00
42411;BME280;28056;51.112;0.984;2024-03-02T08:51:26;98318.86;;;4.07;100.00
42411;BME280;28056;51.112;0.984;2024-03-02T08:53:53;98317.96;;;3.89;100.00
42411;BME280;28056;51.112;0.984;2024-03-02T08:56:20;98334.77;;;4.72;100.00
42411;BME280;28056;51.112;0.984;2024-03-02T08:58:47;98332.18;;;4.87;100.00
42411;BME280;28056;51.112;0.984;2024-03-02T09:01:14;98328.08;;;4.54;100.00
42411;BME280;28056;51.112;0.984;2024-03-02T09:03:41;98327.14;;;4.99;100.00
42411;BME280;28056;51.112;0.984;2024-03-02T09:06:09;98327.93;;;4.52;100.00
42411;BME280;28056;51.112;0.984;2024-03-02T09:08:36;98328.48;;;4.61;100.00
42411;BME280;28056;51.112;0.984;2024-03-02T09:11:04;98326.80;;;4.63;100.00
42411;BME280;28056;51.112;0.984;2024-03-02T09:13:32;98338.25;;;4.83;100.00
42411;BME280;28056;51.112;0.984;2024-03-02T09:15:59;98335.37;;;4.63;100.00
42411;BME280;28056;51.112;0.984;2024-03-02T09:18:27;98337.18;;;4.90;100.00
42411;BME280;28056;51.112;0.984;2024-03-02T09:20:54;98336.02;;;4.18;100.00
42411;BME280;28056;51.112;0.984;2024-03-02T09:23:21;98346.45;;;4.32;100.00
42411;BME280;28056;51.112;0.984;2024-03-02T09:25:49;98347.16;;;4.81;100.00
42411;BME280;28056;51.112;0.984;2024-03-02T09:28:17;98351.85;;;4.96;100.00
42411;BME280;28056;51.112;0.984;2024-03-02T09:30:44;98345.54;;;4.83;100.00
42411;BME280;28056;51.112;0.984;2024-03-02T09:33:11;98354.36;;;4.93;100.00
42411;BME280;28056;51.112;0.984;2024-03-02T09:35:38;98342.47;;;4.61;100.00
42411;BME280;28056;51.112;0.984;2024-03-02T09:38:06;98353.32;;;4.70;100.00
42411;BME280;28056;51.112;0.984;2024-03-02T09:40:33;98348.54;;;5.02;100.00
42411;BME280;28056;51.112;0.984;2024-03-02T09:43:01;98360.89;;;5.10;100.00
42411;BME280;28056;51.112;0.984;2024-03-02T09:45:30;98356.58;;;5.22;100.00
42411;BME280;28056;51.112;0.984;2024-03-02T09:47:57;98352.48;;;5.02;100.00
42411;BME280;28056;51.112;0.984;2024-03-02T09:50:25;98354.10;;;4.97;100.00
42411;BME280;28056;51.112;0.984;2024-03-02T09:52:53;98354.27;;;5.12;100.00
42411;BME280;28056;51.112;0.984;2024-03-02T09:55:20;98353.21;;;5.16;100.00
42411;BME280;28056;51.112;0.984;2024-03-02T09:57:48;98343.03;;;5.03;100.00
42411;BME280;28056;51.112;0.984;2024-03-02T10:00:16;98341.24;;;5.05;100.00
42411;BME280;28056;51.112;0.984;2024-03-02T10:02:44;98348.07;;;5.41;100.00
42411;BME280;28056;51.112;0.984;2024-03-02T10:05:11;98349.62;;;4.16;100.00
42411;BME280;28056;51.112;0.984;2024-03-02T10:07:38;98354.84;;;5.08;100.00
42411;BME280;28056;51.112;0.984;2024-03-02T10:10:14;98360.04;;;5.44;100.00
42411;BME280;28056;51.112;0.984;2024-03-02T10:12:41;98365.07;;;5.07;100.00
42411;BME280;28056;51.112;0.984;2024-03-02T10:15:09;98366.85;;;5.74;100.00
42411;BME280;28056;51.112;0.984;2024-03-02T10:17:37;98375.22;;;5.28;100.00
42411;BME280;28056;51.112;0.984;2024-03-02T10:20:22;98371.07;;;5.40;100.00
42411;BME280;28056;51.112;0.984;2024-03-02T10:22:49;98368.75;;;5.61;100.00
42411;BME280;28056;51.112;0.984;2024-03-02T10:25:29;98370.95;;;5.01;100.00
42411;BME280;28056;51.112;0.984;2024-03-02T10:27:58;98360.88;;;4.98;100.00
42411;BME280;28056;51.112;0.984;2024-03-02T10:30:25;98357.82;;;4.83;100.00
42411;BME280;28056;51.112;0.984;2024-03-02T10:32:54;98365.42;;;4.43;100.00
42411;BME280;28056;51.112;0.984;2024-03-02T10:35:22;98361.25;;;4.74;100.00
42411;BME280;28056;51.112;0.984;2024-03-02T10:37:50;98359.74;;;4.68;100.00
42411;BME280;28056;51.112;0.984;2024-03-02T10:40:19;98364.08;;;4.43;100.00
42411;BME280;28056;51.112;0.984;2024-03-02T10:42:49;98370.94;;;4.97;100.00
42411;BME280;28056;51.112;0.984;2024-03-02T10:45:20;98356.86;;;4.51;100.00
42411;BME280;28056;51.112;0.984;2024-03-02T10:47:47;98366.23;;;5.13;100.00
42411;BME280;28056;51.112;0.984;2024-03-02T10:50:15;98361.22;;;4.39;100.00
42411;BME280;28056;51.112;0.984;2024-03-02T10:52:43;98362.77;;;4.87;100.00
42411;BME280;28056;51.112;0.984;2024-03-02T10:55:10;98371.09;;;4.61;100.00
42411;BME280;28056;51.112;0.984;2024-03-02T10:57:41;98365.00;;;4.82;100.00
42411;BME280;28056;51.112;0.984;2024-03-02T11:00:12;98369.97;;;4.72;100.00
42411;BME280;28056;51.112;0.984;2024-03-02T11:02:42;98374.37;;;4.89;100.00
42411;BME280;28056;51.112;0.984;2024-03-02T11:05:16;98380.08;;;5.06;100.00
42411;BME280;28056;51.112;0.984;2024-03-02T11:07:49;98395.23;;;4.99;100.00
42411;BME280;28056;51.112;0.984;2024-03-02T11:10:18;98387.03;;;5.14;100.00
42411;BME280;28056;51.112;0.984;2024-03-02T11:12:55;98383.87;;;4.79;100.00
42411;BME280;28056;51.112;0.984;2024-03-02T11:15:25;98385.20;;;4.39;100.00
42411;BME280;28056;51.112;0.984;2024-03-02T11:17:53;98387.09;;;4.80;100.00
42411;BME280;28056;51.112;0.984;2024-03-02T11:20:21;98392.77;;;4.96;100.00
42411;BME280;28056;51.112;0.984;2024-03-02T11:22:49;98387.86;;;4.40;100.00
42411;BME280;28056;51.112;0.984;2024-03-02T11:25:24;98390.22;;;4.85;100.00
42411;BME280;28056;51.112;0.984;2024-03-02T11:28:07;98380.72;;;5.25;100.00
42411;BME280;28056;51.112;0.984;2024-03-02T11:30:51;98378.33;;;4.56;100.00
42411;BME280;28056;51.112;0.984;2024-03-02T11:33:32;98370.48;;;4.54;100.00
42411;BME280;28056;51.112;0.984;2024-03-02T11:36:01;98370.48;;;4.76;100.00
42411;BME280;28056;51.112;0.984;2024-03-02T11:38:30;98371.80;;;5.05;100.00
42411;BME280;28056;51.112;0.984;2024-03-02T11:41:00;98371.91;;;5.48;100.00
42411;BME280;28056;51.112;0.984;2024-03-02T11:43:28;98370.61;;;5.57;100.00
42411;BME280;28056;51.112;0.984;2024-03-02T11:45:57;98372.32;;;4.98;100.00
42411;BME280;28056;51.112;0.984;2024-03-02T11:48:25;98378.66;;;5.36;100.00
42411;BME280;28056;51.112;0.984;2024-03-02T11:50:53;98368.86;;;5.43;100.00
42411;BME280;28056;51.112;0.984;2024-03-02T11:53:21;98375.84;;;5.99;100.00
42411;BME280;28056;51.112;0.984;2024-03-02T11:55:49;98363.23;;;5.57;100.00
42411;BME280;28056;51.112;0.984;2024-03-02T11:58:17;98376.81;;;5.79;100.00
42411;BME280;28056;51.112;0.984;2024-03-02T12:00:45;98367.04;;;6.00;100.00
42411;BME280;28056;51.112;0.984;2024-03-02T12:03:13;98365.51;;;5.50;100.00
42411;BME280;28056;51.112;0.984;2024-03-02T12:05:41;98364.71;;;5.73;100.00
42411;BME280;28056;51.112;0.984;2024-03-02T12:08:12;98357.17;;;5.68;100.00
42411;BME280;28056;51.112;0.984;2024-03-02T12:10:40;98349.49;;;6.34;100.00
42411;BME280;28056;51.112;0.984;2024-03-02T12:13:08;98359.09;;;5.91;100.00
42411;BME280;28056;51.112;0.984;2024-03-02T12:15:36;98351.66;;;6.35;100.00
42411;BME280;28056;51.112;0.984;2024-03-02T12:18:05;98361.21;;;6.34;100.00
42411;BME280;28056;51.112;0.984;2024-03-02T12:20:33;98359.60;;;6.02;100.00
42411;BME280;28056;51.112;0.984;2024-03-02T12:23:02;98362.03;;;7.06;100.00
42411;BME280;28056;51.112;0.984;2024-03-02T12:25:31;98354.46;;;6.42;100.00
42411;BME280;28056;51.112;0.984;2024-03-02T12:28:00;98358.33;;;6.30;100.00
42411;BME280;28056;51.112;0.984;2024-03-02T12:30:30;98360.57;;;6.21;100.00
42411;BME280;28056;51.112;0.984;2024-03-02T12:32:59;98345.31;;;6.13;100.00
42411;BME280;28056;51.112;0.984;2024-03-02T12:35:26;98359.39;;;6.50;100.00
42411;BME280;28056;51.112;0.984;2024-03-02T12:37:54;98360.73;;;6.40;100.00
42411;BME280;28056;51.112;0.984;2024-03-02T12:40:22;98364.81;;;6.77;100.00
42411;BME280;28056;51.112;0.984;2024-03-02T12:42:50;98362.41;;;7.10;100.00
42411;BME280;28056;51.112;0.984;2024-03-02T12:45:18;98359.92;;;6.07;100.00
42411;BME280;28056;51.112;0.984;2024-03-02T12:47:45;98372.83;;;5.74;100.00
42411;BME280;28056;51.112;0.984;2024-03-02T12:50:12;98372.18;;;5.96;100.00
42411;BME280;28056;51.112;0.984;2024-03-02T12:52:40;98373.75;;;5.99;100.00
42411;BME280;28056;51.112;0.984;2024-03-02T12:55:08;98374.09;;;5.71;100.00
42411;BME280;28056;51.112;0.984;2024-03-02T12:57:36;98369.59;;;5.88;100.00
42411;BME280;28056;51.112;0.984;2024-03-02T13:00:06;98370.38;;;5.99;100.00
42411;BME280;28056;51.112;0.984;2024-03-02T13:02:34;98370.42;;;6.19;100.00
42411;BME280;28056;51.112;0.984;2024-03-02T13:05:03;98366.61;;;6.39;100.00